Time;durP1;ratioP1;P1;durP2;ratioP2;P2;SDS_P1;SDS_P2;PMS_P1;PMS_P2;Temp;Humidity;BMP_temperature;BMP_pressure;BME280_temperature;BME280_humidity;BME280_pressure;Samples;Min_cycle;Max_cycle;Signal;HPM_P1;HPM_P2
2023/08/18 00:00:25;;;;;;;9.57;8.90;;;20.30;99.90;;;;;;5073770;28;20191;-77
2023/08/18 00:02:52;;;;;;;8.97;8.27;;;20.30;99.90;;;;;;5072047;28;20233;-77
2023/08/18 00:05:18;;;;;;;9.30;8.47;;;20.20;99.90;;;;;;5071990;28;20331;-77
2023/08/18 00:07:46;;;;;;;8.73;8.13;;;20.20;99.90;;;;;;5072401;28;20198;-76
2023/08/18 00:10:14;;;;;;;8.70;8.10;;;20.10;99.90;;;;;;5072276;28;20198;-77
2023/08/18 00:12:41;;;;;;;9.83;9.13;;;20.10;99.90;;;;;;5073318;28;20209;-77
2023/08/18 00:15:08;;;;;;;11.27;10.27;;;20.10;99.90;;;;;;5073428;28;20218;-77
2023/08/18 00:17:35;;;;;;;10.07;9.30;;;20.00;99.90;;;;;;5073541;28;20191;-77
2023/08/18 00:20:02;;;;;;;9.80;9.10;;;20.00;99.90;;;;;;5071863;28;20282;-77
2023/08/18 00:22:29;;;;;;;9.67;9.03;;;19.90;99.90;;;;;;5072875;28;20260;-77
2023/08/18 00:24:57;;;;;;;10.33;9.53;;;19.90;99.90;;;;;;5092075;22;20229;-77
2023/08/18 00:27:25;;;;;;;9.80;9.00;;;19.80;99.90;;;;;;5025462;28;20198;-76
2023/08/18 00:29:52;;;;;;;9.67;8.93;;;19.70;99.90;;;;;;5020337;28;20287;-76
2023/08/18 00:32:19;;;;;;;10.13;9.33;;;19.70;99.90;;;;;;5014132;28;20479;-77
2023/08/18 00:34:45;;;;;;;9.93;9.20;;;19.60;99.90;;;;;;5020140;28;20258;-77
2023/08/18 00:37:13;;;;;;;10.33;9.53;;;19.60;99.90;;;;;;5024735;28;20207;-78
2023/08/18 00:39:40;;;;;;;10.00;9.27;;;19.50;99.90;;;;;;5021316;28;20235;-77
2023/08/18 00:42:07;;;;;;;10.23;9.43;;;19.50;99.90;;;;;;5021372;28;20199;-76
2023/08/18 00:44:35;;;;;;;10.37;9.60;;;19.40;99.90;;;;;;5018987;28;20206;-76
2023/08/18 00:47:03;;;;;;;10.27;9.43;;;19.40;99.90;;;;;;5019547;28;20284;-77
2023/08/18 00:49:29;;;;;;;10.43;9.53;;;19.40;99.90;;;;;;5041763;28;20373;-76
2023/08/18 00:51:57;;;;;;;10.53;9.77;;;19.30;99.90;;;;;;5033726;28;20198;-76
2023/08/18 00:54:25;;;;;;;10.40;9.50;;;19.30;99.90;;;;;;5020213;28;20203;-76
2023/08/18 00:56:51;;;;;;;10.07;9.37;;;19.20;99.90;;;;;;5024591;28;20219;-76
2023/08/18 00:59:19;;;;;;;10.10;9.20;;;19.20;99.90;;;;;;5019915;28;20211;-77
2023/08/18 01:01:49;;;;;;;9.73;9.10;;;19.10;99.90;;;;;;5018171;28;20554;-76
2023/08/18 01:04:16;;;;;;;10.20;9.50;;;19.10;99.90;;;;;;5018170;28;20226;-76
2023/08/18 01:06:42;;;;;;;9.67;8.93;;;19.00;99.90;;;;;;5025779;28;20303;-76
2023/08/18 01:09:09;;;;;;;10.40;9.37;;;19.00;99.90;;;;;;5015368;28;20234;-76
2023/08/18 01:11:56;;;;;;;10.03;9.30;;;18.90;99.90;;;;;;5019803;28;20195;-77
2023/08/18 01:14:28;;;;;;;10.03;9.20;;;18.80;99.90;;;;;;5018979;28;20672;-76
2023/08/18 01:17:02;;;;;;;9.53;8.83;;;18.80;99.90;;;;;;5021163;28;20241;-76
2023/08/18 01:19:29;;;;;;;9.73;9.03;;;18.80;99.90;;;;;;5015508;28;20225;-76
2023/08/18 01:21:58;;;;;;;10.80;9.90;;;18.80;99.90;;;;;;5021703;28;20634;-76
2023/08/18 01:24:29;;;;;;;10.17;9.47;;;18.70;99.90;;;;;;5019057;28;20668;-76
2023/08/18 01:26:55;;;;;;;10.07;9.27;;;18.80;99.90;;;;;;5028718;28;20222;-76
2023/08/18 01:29:23;;;;;;;10.10;9.40;;;18.70;99.90;;;;;;5014339;28;20201;-76
2023/08/18 01:32:05;;;;;;;9.90;9.20;;;18.70;99.90;;;;;;5017932;28;20200;-76
2023/08/18 01:34:34;;;;;;;10.20;9.40;;;18.70;99.90;;;;;;5020348;28;20220;-77
2023/08/18 01:37:03;;;;;;;9.77;9.07;;;18.60;99.90;;;;;;5020468;28;20672;-77
2023/08/18 01:39:32;;;;;;;9.93;9.13;;;18.60;99.90;;;;;;5017726;28;20198;-77
2023/08/18 01:42:02;;;;;;;9.63;8.93;;;18.60;99.90;;;;;;5017321;28;20207;-76
2023/08/18 01:44:29;;;;;;;9.70;9.00;;;18.60;99.90;;;;;;5018447;28;20225;-76
2023/08/18 01:46:56;;;;;;;10.73;9.87;;;18.60;99.90;;;;;;5024814;28;20222;-77
2023/08/18 01:49:22;;;;;;;10.53;9.63;;;18.50;99.90;;;;;;5014311;28;20794;-77
2023/08/18 01:51:50;;;;;;;11.13;10.23;;;18.50;99.90;;;;;;5024827;28;20198;-76
2023/08/18 01:54:16;;;;;;;9.87;9.17;;;18.50;99.90;;;;;;5022115;28;20206;-77
2023/08/18 01:56:44;;;;;;;10.87;9.97;;;18.50;99.90;;;;;;5015788;28;20219;-77
2023/08/18 01:59:14;;;;;;;10.40;9.50;;;18.40;99.90;;;;;;5016622;28;20209;-77
2023/08/18 02:01:41;;;;;;;11.03;10.13;;;18.40;99.90;;;;;;5016836;28;20232;-77
2023/08/18 02:04:08;;;;;;;10.63;9.83;;;18.40;99.90;;;;;;5017787;28;20225;-77
2023/08/18 02:06:35;;;;;;;10.93;9.87;;;18.40;99.90;;;;;;5023341;28;20701;-76
2023/08/18 02:09:03;;;;;;;10.50;9.70;;;18.40;99.90;;;;;;5025334;28;20613;-76
2023/08/18 02:11:30;;;;;;;10.67;9.87;;;18.40;99.90;;;;;;5016669;28;20582;-76
2023/08/18 02:13:58;;;;;;;10.50;9.67;;;18.40;99.90;;;;;;5022497;28;20253;-76
2023/08/18 02:16:25;;;;;;;10.87;9.93;;;18.50;99.90;;;;;;5019616;28;20222;-76
2023/08/18 02:18:52;;;;;;;10.03;9.20;;;18.50;99.90;;;;;;5016727;28;20205;-77
2023/08/18 02:21:19;;;;;;;10.10;9.30;;;18.60;99.90;;;;;;5018036;28;20707;-76
2023/08/18 02:23:45;;;;;;;10.10;9.30;;;18.60;99.90;;;;;;5012210;28;20225;-76
2023/08/18 02:26:13;;;;;;;9.70;8.90;;;18.60;99.90;;;;;;5014565;28;20933;-77
2023/08/18 02:28:40;;;;;;;10.00;9.30;;;18.60;99.90;;;;;;5016291;28;20199;-77
2023/08/18 02:31:10;;;;;;;9.13;8.43;;;18.60;99.90;;;;;;5017449;28;20641;-77
2023/08/18 02:33:37;;;;;;;9.63;8.93;;;18.70;99.90;;;;;;5025897;28;20196;-77
2023/08/18 02:36:07;;;;;;;9.67;8.80;;;18.70;99.90;;;;;;5017488;28;20632;-77
2023/08/18 02:38:35;;;;;;;9.50;8.80;;;18.70;99.90;;;;;;5011686;28;20277;-77
2023/08/18 02:41:02;;;;;;;10.10;9.10;;;18.70;99.90;;;;;;5014266;28;20213;-77
2023/08/18 02:43:29;;;;;;;9.60;8.80;;;18.70;99.90;;;;;;5013313;28;20270;-77
2023/08/18 02:45:56;;;;;;;9.90;9.20;;;18.70;99.90;;;;;;5017462;28;20225;-80
2023/08/18 02:48:27;;;;;;;10.13;9.33;;;18.70;99.90;;;;;;5027587;28;20201;-76
2023/08/18 02:51:02;;;;;;;9.53;8.73;;;18.70;99.90;;;;;;5028822;28;20196;-76
2023/08/18 02:53:29;;;;;;;9.70;8.80;;;18.60;99.90;;;;;;5030069;28;20209;-80
2023/08/18 02:55:58;;;;;;;9.30;8.70;;;18.60;99.90;;;;;;5032389;28;20708;-79
2023/08/18 02:58:25;;;;;;;9.83;9.13;;;18.60;99.90;;;;;;5024137;28;20259;-79
2023/08/18 03:00:52;;;;;;;9.57;8.87;;;18.50;99.90;;;;;;5017652;28;20203;-78
2023/08/18 03:03:19;;;;;;;9.20;8.50;;;18.40;99.90;;;;;;5029081;28;20254;-78
2023/08/18 03:05:48;;;;;;;9.30;8.60;;;18.40;99.90;;;;;;5032746;28;20219;-79
2023/08/18 03:08:15;;;;;;;8.60;8.00;;;18.30;99.90;;;;;;5033100;28;20210;-78
2023/08/18 03:10:42;;;;;;;9.77;9.07;;;18.30;99.90;;;;;;5032971;28;20544;-79
2023/08/18 03:13:09;;;;;;;9.83;9.13;;;18.30;99.90;;;;;;5034146;28;20200;-79
2023/08/18 03:15:40;;;;;;;10.10;9.40;;;18.20;99.90;;;;;;5030662;28;20220;-78
2023/08/18 03:18:07;;;;;;;10.03;9.30;;;18.20;99.90;;;;;;5031629;28;20651;-79
2023/08/18 03:20:34;;;;;;;9.37;8.77;;;18.20;99.90;;;;;;5035019;28;20256;-79
2023/08/18 03:23:02;;;;;;;9.40;8.80;;;18.20;99.90;;;;;;5033516;28;20233;-79
2023/08/18 03:25:29;;;;;;;9.87;9.27;;;18.10;99.90;;;;;;5035177;28;20225;-78
2023/08/18 03:27:56;;;;;;;10.13;9.43;;;18.10;99.90;;;;;;5035998;28;20204;-78
2023/08/18 03:30:23;;;;;;;10.97;10.17;;;18.00;99.90;;;;;;5034975;28;20198;-79
2023/08/18 03:32:51;;;;;;;10.47;9.67;;;18.00;99.90;;;;;;5032795;28;20211;-79
2023/08/18 03:35:18;;;;;;;10.10;9.40;;;18.00;99.90;;;;;;5034111;28;20220;-78
2023/08/18 03:37:45;;;;;;;9.80;9.00;;;17.90;99.90;;;;;;5035721;28;20251;-78
2023/08/18 03:40:14;;;;;;;10.17;9.47;;;17.90;99.90;;;;;;5033599;28;20211;-79
2023/08/18 03:42:40;;;;;;;9.73;9.03;;;17.90;99.90;;;;;;5045814;28;20204;-79
2023/08/18 03:45:08;;;;;;;9.60;8.87;;;17.90;99.90;;;;;;5042871;28;20231;-77
2023/08/18 03:47:35;;;;;;;9.67;9.07;;;17.90;99.90;;;;;;5041697;28;20209;-79
2023/08/18 03:50:04;;;;;;;10.70;9.80;;;17.90;99.90;;;;;;5034750;28;20620;-79
2023/08/18 03:52:31;;;;;;;9.70;9.00;;;17.90;99.90;;;;;;5030689;28;20262;-76
2023/08/18 03:54:58;;;;;;;10.23;9.50;;;17.90;99.90;;;;;;5030452;28;20562;-75
2023/08/18 03:57:26;;;;;;;10.00;9.20;;;18.00;99.90;;;;;;5030978;28;20196;-76
2023/08/18 03:59:55;;;;;;;10.30;9.40;;;18.00;99.90;;;;;;5032707;28;20195;-76
2023/08/18 04:02:23;;;;;;;9.90;9.10;;;18.00;99.90;;;;;;5030652;28;20216;-76
2023/08/18 04:04:50;;;;;;;10.30;9.50;;;18.00;99.90;;;;;;5031769;28;20240;-76
2023/08/18 04:07:17;;;;;;;10.10;9.30;;;18.10;99.90;;;;;;5030820;28;20208;-75
2023/08/18 04:09:43;;;;;;;10.03;9.33;;;18.10;99.90;;;;;;5026800;28;20681;-76
2023/08/18 04:12:10;;;;;;;9.87;9.17;;;18.20;99.90;;;;;;5035005;28;20254;-76
2023/08/18 04:14:38;;;;;;;9.07;8.50;;;18.20;99.90;;;;;;5030980;28;20198;-75
2023/08/18 04:17:05;;;;;;;9.30;8.70;;;18.30;99.90;;;;;;5031093;28;20228;-75
2023/08/18 04:19:32;;;;;;;9.50;8.80;;;18.30;99.90;;;;;;5030879;28;20202;-76
2023/08/18 04:21:59;;;;;;;9.37;8.77;;;18.30;99.90;;;;;;5031059;28;20199;-76
2023/08/18 04:24:26;;;;;;;9.27;8.67;;;18.20;99.90;;;;;;5029809;28;20229;-76
2023/08/18 04:26:59;;;;;;;10.30;9.60;;;18.20;99.90;;;;;;5030540;28;20303;-77
2023/08/18 04:29:27;;;;;;;9.83;9.13;;;18.20;99.90;;;;;;5030793;28;20228;-76
2023/08/18 04:31:56;;;;;;;9.70;9.00;;;18.20;99.90;;;;;;5025200;28;20192;-76
2023/08/18 04:34:23;;;;;;;9.47;8.77;;;18.10;99.90;;;;;;5030341;28;20198;-77
2023/08/18 04:36:50;;;;;;;9.33;8.73;;;18.10;99.90;;;;;;5025331;28;20220;-76
2023/08/18 04:39:17;;;;;;;9.50;8.80;;;18.10;99.90;;;;;;5032793;28;20232;-80
2023/08/18 04:41:44;;;;;;;10.07;9.37;;;18.00;99.90;;;;;;5034680;28;20753;-81
2023/08/18 04:44:11;;;;;;;9.90;9.30;;;18.00;99.90;;;;;;5032862;28;20675;-80
2023/08/18 04:46:39;;;;;;;10.10;9.40;;;18.00;99.90;;;;;;5026152;28;20217;-84
2023/08/18 04:49:13;;;;;;;10.37;9.63;;;17.90;99.90;;;;;;5031851;28;20204;-80
2023/08/18 04:51:41;;;;;;;10.80;9.90;;;17.90;99.90;;;;;;5034607;28;20231;-80
2023/08/18 04:54:08;;;;;;;10.50;9.60;;;17.80;99.90;;;;;;5032484;28;20587;-80
2023/08/18 04:56:35;;;;;;;10.90;10.10;;;17.90;99.90;;;;;;5036078;28;20221;-78
2023/08/18 04:59:01;;;;;;;10.50;9.70;;;17.90;99.90;;;;;;5040149;28;20204;-81
2023/08/18 05:01:29;;;;;;;10.20;9.50;;;18.00;99.90;;;;;;5040509;28;20198;-81
2023/08/18 05:03:57;;;;;;;10.10;9.30;;;18.00;99.90;;;;;;5029294;28;20459;-81
2023/08/18 05:06:25;;;;;;;10.43;9.63;;;18.00;99.90;;;;;;5033116;28;20220;-77
2023/08/18 05:08:52;;;;;;;9.97;9.20;;;18.00;99.90;;;;;;5030340;28;20425;-81
2023/08/18 05:11:18;;;;;;;10.07;9.37;;;18.00;99.90;;;;;;5035225;28;20201;-76
2023/08/18 05:13:45;;;;;;;11.13;10.23;;;18.10;99.90;;;;;;5031606;28;20239;-77
2023/08/18 05:16:12;;;;;;;10.43;9.73;;;18.20;99.90;;;;;;5028378;28;20711;-77
2023/08/18 05:18:39;;;;;;;11.00;10.10;;;18.20;99.90;;;;;;5029880;28;20676;-77
2023/08/18 05:21:06;;;;;;;10.87;10.07;;;18.30;99.90;;;;;;5032459;28;20252;-77
2023/08/18 05:23:34;;;;;;;10.80;10.00;;;18.40;99.90;;;;;;5032010;28;20217;-77
2023/08/18 05:26:01;;;;;;;10.57;9.87;;;18.60;99.90;;;;;;5031535;28;20238;-77
2023/08/18 05:28:29;;;;;;;10.53;9.73;;;18.70;99.90;;;;;;5020537;28;20704;-76
2023/08/18 05:30:56;;;;;;;10.70;9.80;;;18.80;99.90;;;;;;5032248;28;20194;-76
2023/08/18 05:33:22;;;;;;;11.03;10.23;;;18.90;99.90;;;;;;5031841;28;20264;-77
2023/08/18 05:35:49;;;;;;;10.53;9.73;;;19.00;99.90;;;;;;5029297;28;20222;-77
2023/08/18 05:38:16;;;;;;;10.37;9.50;;;19.10;99.90;;;;;;5030233;28;20582;-77
2023/08/18 05:40:46;;;;;;;10.90;10.10;;;19.20;99.90;;;;;;5032504;28;20246;-77
2023/08/18 05:43:14;;;;;;;5.17;4.40;;;19.30;99.90;;;;;;5031323;28;20211;-77
2023/08/18 05:45:43;;;;;;;7.10;6.40;;;19.50;99.90;;;;;;5031937;28;20716;-77
2023/08/18 05:48:09;;;;;;;7.60;6.90;;;19.60;99.90;;;;;;5031342;28;20664;-77
2023/08/18 05:50:36;;;;;;;6.43;5.83;;;19.70;99.90;;;;;;5031519;28;20206;-76
2023/08/18 05:53:04;;;;;;;7.27;6.13;;;19.80;99.90;;;;;;5027836;28;20230;-76
2023/08/18 05:55:32;;;;;;;9.17;8.47;;;19.90;99.90;;;;;;5029460;28;20219;-77
2023/08/18 05:58:02;;;;;;;9.10;8.50;;;19.90;99.90;;;;;;5028896;28;20661;-77
2023/08/18 06:00:30;;;;;;;10.03;9.23;;;20.00;99.90;;;;;;5032785;28;20248;-76
2023/08/18 06:02:58;;;;;;;8.53;7.83;;;20.10;99.90;;;;;;5028035;28;20200;-77
2023/08/18 06:05:26;;;;;;;8.77;8.07;;;20.20;99.90;;;;;;5030727;28;20747;-77
2023/08/18 06:07:54;;;;;;;5.27;4.70;;;20.30;99.90;;;;;;5032578;28;20207;-76
2023/08/18 06:10:21;;;;;;;6.10;4.43;;;20.30;99.90;;;;;;5031558;28;20659;-77
2023/08/18 06:12:48;;;;;;;9.60;8.70;;;20.30;99.90;;;;;;5030779;28;20208;-77
2023/08/18 06:15:18;;;;;;;5.40;4.90;;;20.30;99.90;;;;;;5029257;28;20219;-77
2023/08/18 06:17:45;;;;;;;4.93;4.43;;;20.30;99.90;;;;;;5033324;28;20204;-77
2023/08/18 06:20:13;;;;;;;6.83;5.97;;;20.40;99.90;;;;;;5032450;28;20666;-76
2023/08/18 06:22:39;;;;;;;5.30;4.73;;;20.40;99.90;;;;;;5030130;28;20196;-77
2023/08/18 06:27:36;;;;;;;5.77;4.23;;;20.70;99.90;;;;;;5050884;28;20214;-77
2023/08/18 06:30:03;;;;;;;5.33;4.63;;;20.80;99.90;;;;;;5018776;28;20208;-76
2023/08/18 06:32:32;;;;;;;7.40;5.10;;;20.90;99.90;;;;;;5037698;28;20195;-77
2023/08/18 06:34:59;;;;;;;10.90;10.07;;;21.00;99.90;;;;;;5034859;28;20330;-76
2023/08/18 06:37:26;;;;;;;11.13;10.17;;;21.10;99.90;;;;;;5040512;28;20841;-77
2023/08/18 06:39:53;;;;;;;10.50;9.63;;;21.00;99.90;;;;;;5037899;28;20379;-77
2023/08/18 06:42:20;;;;;;;10.57;9.87;;;21.10;99.90;;;;;;5038315;28;20318;-77
2023/08/18 06:44:47;;;;;;;10.77;9.97;;;21.20;99.90;;;;;;5019225;28;20242;-77
2023/08/18 06:47:14;;;;;;;10.93;10.03;;;21.40;99.90;;;;;;5035400;28;20571;-76
2023/08/18 06:49:42;;;;;;;11.80;10.80;;;21.40;99.90;;;;;;5034088;28;20273;-77
2023/08/18 06:52:09;;;;;;;8.00;6.67;;;21.50;99.90;;;;;;5034778;28;20204;-77
2023/08/18 06:54:35;;;;;;;8.13;5.90;;;21.50;99.90;;;;;;5034974;28;20667;-77
2023/08/18 06:57:02;;;;;;;7.23;6.57;;;21.50;99.90;;;;;;5033274;28;20277;-77
2023/08/18 06:59:29;;;;;;;9.60;8.90;;;21.70;99.90;;;;;;5040599;28;20195;-78
2023/08/18 07:01:56;;;;;;;9.67;8.97;;;21.80;99.90;;;;;;5042738;28;20210;-78
2023/08/18 07:04:23;;;;;;;9.90;9.20;;;21.90;99.90;;;;;;5041435;28;20246;-79
2023/08/18 07:06:51;;;;;;;4.97;4.53;;;21.90;99.90;;;;;;5039978;28;20230;-80
2023/08/18 07:09:18;;;;;;;5.83;4.50;;;22.00;99.90;;;;;;5042349;28;20200;-82
2023/08/18 07:11:45;;;;;;;4.73;4.33;;;22.10;99.90;;;;;;5043453;28;20585;-77
2023/08/18 07:14:12;;;;;;;6.03;5.43;;;22.20;99.90;;;;;;5041524;28;20254;-79
2023/08/18 07:16:39;;;;;;;10.00;9.30;;;22.40;99.90;;;;;;5041898;28;20246;-76
2023/08/18 07:19:06;;;;;;;9.43;8.73;;;22.50;99.90;;;;;;5049790;28;20243;-76
2023/08/18 07:21:33;;;;;;;7.13;6.53;;;22.70;99.90;;;;;;5034477;28;20204;-76
2023/08/18 07:24:01;;;;;;;7.03;6.33;;;22.90;99.90;;;;;;5033820;28;20286;-75
2023/08/18 07:26:28;;;;;;;6.67;6.07;;;23.10;99.90;;;;;;5034185;28;20250;-76
2023/08/18 07:28:56;;;;;;;9.53;8.73;;;23.40;99.90;;;;;;5032702;28;20223;-77
2023/08/18 07:31:22;;;;;;;10.53;9.73;;;23.50;99.90;;;;;;5034240;28;20287;-77
2023/08/18 07:33:49;;;;;;;11.43;10.50;;;23.90;99.90;;;;;;5033388;28;20200;-76
2023/08/18 07:36:16;;;;;;;6.63;6.00;;;24.20;99.90;;;;;;5033960;28;20212;-76
2023/08/18 07:38:43;;;;;;;9.20;8.40;;;24.50;99.90;;;;;;5036622;28;20254;-79
2023/08/18 07:41:11;;;;;;;11.67;9.67;;;24.90;99.90;;;;;;5035972;28;20252;-81
2023/08/18 07:43:38;;;;;;;4.60;4.10;;;25.40;99.90;;;;;;5038352;28;20207;-77
2023/08/18 07:46:05;;;;;;;10.57;9.47;;;25.50;99.90;;;;;;5038266;28;20768;-77
2023/08/18 07:48:32;;;;;;;10.10;9.30;;;25.90;99.90;;;;;;5036250;28;20625;-77
2023/08/18 07:50:58;;;;;;;10.10;9.17;;;26.40;99.90;;;;;;5036998;28;20200;-78
2023/08/18 07:53:26;;;;;;;9.33;8.50;;;26.80;99.90;;;;;;5036523;28;20283;-78
2023/08/18 07:55:53;;;;;;;6.43;5.33;;;27.20;99.90;;;;;;5037559;28;20212;-77
2023/08/18 07:58:21;;;;;;;10.33;9.33;;;27.60;99.90;;;;;;5036693;28;20199;-79
2023/08/18 08:00:49;;;;;;;4.83;4.40;;;27.50;99.90;;;;;;5034688;28;20226;-79
2023/08/18 08:03:16;;;;;;;4.80;3.97;;;27.50;99.90;;;;;;5024421;28;20263;-80
2023/08/18 08:05:42;;;;;;;7.17;6.53;;;27.80;99.90;;;;;;5038288;28;20278;-79
2023/08/18 08:08:11;;;;;;;6.77;6.00;;;28.20;99.90;;;;;;5037943;28;20200;-78
2023/08/18 08:10:38;;;;;;;6.53;5.90;;;28.40;99.90;;;;;;5035384;28;20192;-77
2023/08/18 08:13:05;;;;;;;6.67;6.00;;;28.70;99.90;;;;;;5032502;28;20689;-77
2023/08/18 08:15:33;;;;;;;9.90;9.00;;;28.90;99.90;;;;;;5014415;28;20220;-77
2023/08/18 08:18:00;;;;;;;6.30;5.70;;;28.90;99.90;;;;;;5033630;28;20196;-77
2023/08/18 08:20:27;;;;;;;5.70;5.20;;;29.00;99.90;;;;;;5016101;28;20219;-76
2023/08/18 08:22:53;;;;;;;10.27;9.23;;;29.20;99.90;;;;;;5033860;28;20204;-77
2023/08/18 08:25:20;;;;;;;8.33;7.53;;;29.10;99.90;;;;;;5032653;28;20211;-77
2023/08/18 08:27:51;;;;;;;10.30;9.33;;;29.40;99.90;;;;;;5032669;28;20204;-77
2023/08/18 08:30:18;;;;;;;10.47;9.60;;;29.80;99.90;;;;;;5032894;28;20299;-77
2023/08/18 08:32:46;;;;;;;10.20;9.50;;;29.80;99.90;;;;;;5033605;28;20243;-77
2023/08/18 08:35:13;;;;;;;10.97;9.87;;;29.70;99.90;;;;;;5029955;28;20283;-77
2023/08/18 08:37:41;;;;;;;9.27;8.67;;;29.60;99.90;;;;;;5033551;28;20616;-77
2023/08/18 08:40:16;;;;;;;10.27;9.53;;;29.50;99.90;;;;;;5033055;28;20569;-77
2023/08/18 08:42:43;;;;;;;9.93;9.00;;;29.70;99.90;;;;;;5033288;28;20249;-77
2023/08/18 08:45:10;;;;;;;10.30;9.23;;;29.90;99.90;;;;;;5032899;28;20254;-77
2023/08/18 08:47:38;;;;;;;10.20;9.23;;;30.10;99.90;;;;;;5048207;28;20266;-77
2023/08/18 08:50:07;;;;;;;10.20;9.40;;;30.10;99.90;;;;;;5014921;28;20227;-77
2023/08/18 08:52:38;;;;;;;9.33;8.53;;;30.00;99.90;;;;;;5031557;28;20200;-77
2023/08/18 08:55:07;;;;;;;9.40;8.60;;;30.00;99.90;;;;;;5033068;28;20249;-77
2023/08/18 08:57:34;;;;;;;9.57;8.97;;;30.50;99.90;;;;;;5033137;28;20250;-77
2023/08/18 09:00:02;;;;;;;10.57;9.50;;;30.80;99.90;;;;;;5048205;28;20200;-77
2023/08/18 09:02:29;;;;;;;10.50;9.60;;;30.50;99.90;;;;;;5014870;28;20254;-77
2023/08/18 09:05:00;;;;;;;9.10;8.30;;;30.60;99.90;;;;;;5032346;28;20637;-77
2023/08/18 09:07:29;;;;;;;10.07;9.17;;;30.60;99.90;;;;;;5031559;28;20216;-77
2023/08/18 09:09:56;;;;;;;9.83;9.03;;;31.00;99.90;;;;;;5032815;28;20250;-76
2023/08/18 09:12:28;;;;;;;9.80;9.10;;;30.90;99.90;;;;;;5032172;28;20544;-77
2023/08/18 09:14:55;;;;;;;9.07;8.27;;;30.80;99.90;;;;;;5032775;28;20196;-77
2023/08/18 09:17:22;;;;;;;9.73;9.00;;;30.90;99.90;;;;;;5031858;28;20592;-80
2023/08/18 09:19:49;;;;;;;8.90;8.30;;;31.10;99.90;;;;;;5035722;28;20278;-83
2023/08/18 09:22:21;;;;;;;7.70;7.10;;;31.30;99.90;;;;;;5030670;28;20286;-83
2023/08/18 09:24:50;;;;;;;9.00;7.60;;;31.40;99.90;;;;;;5017609;28;20638;-79
2023/08/18 09:27:17;;;;;;;7.97;7.20;;;31.30;99.90;;;;;;5027125;28;20281;-80
2023/08/18 09:29:43;;;;;;;7.30;6.70;;;31.00;99.90;;;;;;5037020;28;20665;-78
2023/08/18 09:32:11;;;;;;;8.60;6.63;;;31.00;99.90;;;;;;5038009;28;20203;-76
2023/08/18 09:34:38;;;;;;;7.40;6.80;;;31.30;99.90;;;;;;5021144;28;20192;-78
2023/08/18 09:37:05;;;;;;;7.60;7.00;;;31.30;99.90;;;;;;5034317;28;20581;-77
2023/08/18 09:39:32;;;;;;;7.80;7.10;;;31.50;99.90;;;;;;5034797;28;20199;-77
2023/08/18 09:42:00;;;;;;;9.47;7.43;;;31.80;99.90;;;;;;5036903;28;20192;-79
2023/08/18 09:44:28;;;;;;;7.80;7.20;;;31.90;99.90;;;;;;5036216;28;20196;-79
2023/08/18 09:46:56;;;;;;;7.63;7.03;;;32.00;99.90;;;;;;5038255;28;20258;-78
2023/08/18 09:49:25;;;;;;;4.20;3.80;;;32.20;99.90;;;;;;5040245;28;20200;-80
2023/08/18 09:51:53;;;;;;;4.30;3.90;;;32.30;99.90;;;;;;5036400;28;20199;-79
2023/08/18 09:54:24;;;;;;;4.15;3.60;;;32.50;99.90;;;;;;5039799;28;20286;-79
2023/08/18 09:56:56;;;;;;;5.27;3.80;;;32.10;99.90;;;;;;5037987;28;20223;-79
2023/08/18 09:59:29;;;;;;;4.30;3.88;;;32.20;99.90;;;;;;5040700;28;20200;-77
2023/08/18 10:01:56;;;;;;;6.05;3.90;;;32.30;99.90;;;;;;5035344;28;20566;-78
2023/08/18 10:04:24;;;;;;;4.28;3.80;;;32.40;99.90;;;;;;5036728;28;20200;-79
2023/08/18 10:06:52;;;;;;;4.68;4.00;;;32.50;99.90;;;;;;5035873;28;20299;-79
2023/08/18 10:09:20;;;;;;;4.22;3.60;;;32.50;99.90;;;;;;5016712;28;20495;-82
2023/08/18 10:11:47;;;;;;;4.57;4.05;;;32.40;99.90;;;;;;5035624;28;20426;-79
2023/08/18 10:14:15;;;;;;;3.88;3.50;;;32.20;99.90;;;;;;5038257;28;20207;-79
2023/08/18 10:16:45;;;;;;;4.15;3.45;;;31.90;99.90;;;;;;5035923;28;20246;-79
2023/08/18 10:19:12;;;;;;;6.88;3.90;;;32.00;99.90;;;;;;5018850;28;20250;-80
2023/08/18 10:21:40;;;;;;;5.28;3.90;;;32.10;99.90;;;;;;5035274;28;20897;-80
2023/08/18 10:24:07;;;;;;;4.60;3.70;;;31.90;99.90;;;;;;5032259;28;20577;-80
2023/08/18 10:26:36;;;;;;;4.82;4.18;;;31.80;99.90;;;;;;5033629;28;20255;-82
2023/08/18 10:29:15;;;;;;;6.67;4.13;;;31.70;99.90;;;;;;5025033;28;20207;-83
2023/08/18 10:31:48;;;;;;;6.80;5.50;;;31.60;99.90;;;;;;5044822;28;20295;-83
2023/08/18 10:34:22;;;;;;;5.90;5.37;;;31.40;99.90;;;;;;5032642;28;20299;-83
2023/08/18 10:36:49;;;;;;;5.20;4.63;;;31.10;99.90;;;;;;5032123;28;20290;-82
2023/08/18 10:39:24;;;;;;;5.50;5.00;;;31.20;99.90;;;;;;5033472;28;20658;-82
2023/08/18 10:42:05;;;;;;;4.40;4.00;;;31.40;99.90;;;;;;5048120;28;20201;-81
2023/08/18 10:44:32;;;;;;;6.23;4.93;;;31.50;99.90;;;;;;5015068;28;20744;-82
2023/08/18 10:47:02;;;;;;;5.43;4.93;;;31.60;99.90;;;;;;5048580;28;20231;-81
2023/08/18 10:49:29;;;;;;;3.93;3.50;;;31.60;99.90;;;;;;5025836;28;20287;-83
2023/08/18 10:51:56;;;;;;;4.63;3.37;;;31.80;99.90;;;;;;5031474;28;20560;-83
2023/08/18 10:54:24;;;;;;;5.10;4.60;;;31.70;99.90;;;;;;5015617;28;20200;-82
2023/08/18 10:56:51;;;;;;;5.73;4.53;;;31.50;99.90;;;;;;5033777;28;20237;-82
2023/08/18 10:59:18;;;;;;;5.07;4.50;;;31.30;99.90;;;;;;5037185;28;20196;-82
2023/08/18 11:01:45;;;;;;;6.10;5.43;;;31.30;99.90;;;;;;5033774;28;20667;-83
2023/08/18 11:04:15;;;;;;;5.90;5.40;;;31.30;99.90;;;;;;5050037;28;20215;-81
2023/08/18 11:06:42;;;;;;;7.33;5.03;;;31.30;99.90;;;;;;5034170;28;20669;-81
2023/08/18 11:09:11;;;;;;;4.93;4.53;;;31.30;99.90;;;;;;5017335;28;20258;-82
2023/08/18 11:11:39;;;;;;;4.40;4.10;;;31.10;99.90;;;;;;5032903;28;20200;-82
2023/08/18 11:14:06;;;;;;;3.70;3.40;;;31.20;99.90;;;;;;5032668;28;20677;-82
2023/08/18 11:16:36;;;;;;;3.37;2.93;;;31.30;99.90;;;;;;5036176;28;20215;-82
2023/08/18 11:19:04;;;;;;;4.73;4.10;;;31.30;99.90;;;;;;5015994;28;20204;-83
2023/08/18 11:21:35;;;;;;;5.27;4.00;;;31.30;99.90;;;;;;5033806;28;20206;-82
2023/08/18 11:24:04;;;;;;;4.13;3.73;;;31.20;99.90;;;;;;5034492;28;20231;-83
2023/08/18 11:26:35;;;;;;;4.63;3.65;;;31.10;99.90;;;;;;5033298;28;20453;-83
2023/08/18 11:29:02;;;;;;;3.57;3.17;;;31.10;99.90;;;;;;5028378;28;20216;-82
2023/08/18 11:31:29;;;;;;;4.10;3.70;;;31.10;99.90;;;;;;5032949;28;20195;-83
2023/08/18 11:33:58;;;;;;;4.80;4.37;;;31.10;99.90;;;;;;5013907;28;20619;-85
2023/08/18 11:36:29;;;;;;;5.17;4.67;;;31.10;99.90;;;;;;5036804;28;20299;-84
2023/08/18 11:39:04;;;;;;;5.30;4.40;;;31.10;99.90;;;;;;5017620;28;20287;-81
2023/08/18 11:41:37;;;;;;;4.60;4.20;;;31.10;99.90;;;;;;5031600;28;20188;-82
2023/08/18 11:44:04;;;;;;;5.47;4.20;;;31.20;99.90;;;;;;5035806;28;20200;-83
2023/08/18 11:46:31;;;;;;;3.90;3.60;;;31.20;99.90;;;;;;5034808;28;20449;-82
2023/08/18 11:49:00;;;;;;;4.83;4.43;;;31.10;99.90;;;;;;5035897;28;20192;-82
2023/08/18 11:51:27;;;;;;;5.27;4.77;;;31.10;99.90;;;;;;5052607;28;20609;-85
2023/08/18 11:53:55;;;;;;;5.27;4.80;;;30.90;99.90;;;;;;5017247;28;20286;-83
2023/08/18 11:56:26;;;;;;;5.50;5.00;;;30.80;99.90;;;;;;5031339;28;20219;-83
2023/08/18 11:58:53;;;;;;;5.67;5.23;;;30.90;99.90;;;;;;5030642;28;20198;-84
2023/08/18 12:01:21;;;;;;;8.03;5.23;;;31.00;99.90;;;;;;5020209;28;20223;-82
2023/08/18 12:03:57;;;;;;;6.10;5.50;;;31.10;99.90;;;;;;5034961;28;20200;-80
2023/08/18 12:06:25;;;;;;;7.00;5.20;;;31.20;99.90;;;;;;5032613;28;20261;-84
2023/08/18 12:08:52;;;;;;;5.50;4.70;;;31.10;99.90;;;;;;5053304;28;20234;-84
2023/08/18 12:11:19;;;;;;;5.43;4.97;;;31.30;99.90;;;;;;5020068;28;20258;-83
2023/08/18 12:13:47;;;;;;;5.13;4.70;;;31.30;99.90;;;;;;5019588;28;20200;-84
2023/08/18 12:16:14;;;;;;;5.07;4.67;;;31.40;99.90;;;;;;5038501;28;20598;-84
2023/08/18 12:18:41;;;;;;;5.93;4.93;;;31.30;99.90;;;;;;5037801;28;20203;-85
2023/08/18 12:21:08;;;;;;;6.97;4.83;;;31.10;99.90;;;;;;5047344;28;20208;-85
2023/08/18 12:23:35;;;;;;;7.90;5.20;;;31.10;99.90;;;;;;5019319;28;20200;-85
2023/08/18 12:26:03;;;;;;;5.90;5.33;;;31.20;99.90;;;;;;5042417;22;21350;-81
2023/08/18 12:28:32;;;;;;;4.67;4.27;;;31.00;99.90;;;;;;5028277;28;20208;-84
2023/08/18 12:31:01;;;;;;;5.07;4.67;;;31.00;99.90;;;;;;5029538;28;20203;-82
2023/08/18 12:33:28;;;;;;;5.73;5.20;;;30.80;99.90;;;;;;5035548;28;20226;-77
2023/08/18 12:35:55;;;;;;;4.77;3.00;;;30.80;99.90;;;;;;5033997;28;20227;-81
2023/08/18 12:38:22;;;;;;;4.83;4.43;;;30.80;99.90;;;;;;5031066;28;20591;-83
2023/08/18 12:40:49;;;;;;;5.97;5.20;;;30.80;99.90;;;;;;5029287;28;20270;-84
2023/08/18 12:43:16;;;;;;;5.23;4.77;;;30.80;99.90;;;;;;5030907;28;20265;-83
2023/08/18 12:45:43;;;;;;;5.37;4.97;;;30.70;99.90;;;;;;5029201;28;20211;-84
2023/08/18 12:48:11;;;;;;;5.57;5.07;;;30.70;99.90;;;;;;5031124;28;20204;-84